Historyczne dane pomiarowe

Dodano dane terminowe – wersja testowa.

Dane z okresu 1951-2019

Wersja bazy: 1.34 [2019-03-16, lista zmian], aktualizacja planowana na 2019-04-15

Dane meteo z obszaru Polski uzyskane na podstawie danych udostępnionych przez Instytut Meteorologii i Gospodarki Wodnej – Państwowy Instytut Badawczy.

 

Wybierz Datę:    

       

TemperaturaWilgotnośćWiatrCiśnienieOpadyŚniegCzas trwania zjawisk
 Stacja t tx tn tng RH VA  wxwx mslp ppp RRR   cm mm wxwxwxwxwxwxwx
1961-08-14 12.9 18.5 5.5 3.4 74.8- 2.3 2.0---- 0.0------------
1961-08-13 10.6 13.7 9.0 10.4 95.0- 5.3 2.3---- 16.5------------
1961-08-12 16.8 24.0 13.6 12.7 87.5- 7.7 1.3---- 40.0------------
1961-08-11 21.6 30.0 18.3 13.6 84.5- 3.3 4.3---- 0.0------------
1961-08-10 24.8 29.2 16.7 13.4 69.5- 3.3 4.0---- 0.0------------
1961-08-09 22.8 27.8 16.9 13.5 77.3- 4.3 2.3---- 1.1------------
1961-08-08 18.4 22.8 14.7 14.8 91.0- 4.7 4.3---- 0.0------------
1961-08-07 22.4 28.0 19.5 13.0 75.0- 4.7 2.0---- 15.7------------
1961-08-06 24.2 28.8 15.8 11.8 52.5- 1.0 8.3---- 0.0------------
1961-08-05 18.7 23.4 14.6 12.5 73.3- 4.7 5.3---- 0.0------------
1961-08-04 16.5 19.8 8.3 7.0 66.8- 6.3 3.0---- 0.0------------
1961-08-03 15.2 19.4 12.1 9.1 88.0- 7.0 1.7---- 0.6------------
1961-08-02 19.0 24.2 11.4 6.5 63.8- 3.0 4.3---- 0.0------------
1961-08-01 14.8 20.6 11.8 8.9 69.5- 4.0 5.7---- 0.0------------
1961-07-31 12.4 14.4 9.3 8.7 85.0- 8.0 7.0---- 3.0------------
1961-07-30 10.2 11.7 9.5 9.4 97.5- 8.0 2.7---- 32.0------------
1961-07-29 11.9 17.8 10.5 10.9 92.3- 8.0 4.0---- 8.5------------
1961-07-28 20.0 24.0 15.4 13.2 70.0- 7.0 4.7---- 15.3------------
1961-07-27 21.9 25.4 16.3 10.1 54.3- 5.7 8.0---- 0.0------------
1961-07-26 16.4 22.4 7.1 2.4 63.0- 2.7 2.7---- 0.0------------
1961-07-25 12.1 14.5 8.7 5.5 80.0- 6.7 3.3---- 0.0------------
1961-07-24 13.6 17.3 10.0 5.7 76.0- 6.0 3.3---- 0.0------------
1961-07-23 15.3 19.4 10.0 6.6 78.5- 6.0 1.0---- 0.0------------
1961-07-22 14.1 17.8 12.4 10.4 84.3- 7.7 5.0---- 11.8------------
1961-07-21 15.0 18.8 10.2 5.5 76.5- 5.7 5.7---- 4.8------------
1961-07-20 13.5 17.3 8.2 5.2 82.5- 6.3 2.0---- 0.5------------
1961-07-19 14.4 19.9 10.0 5.8 78.8- 5.3 2.7---- 2.3------------
1961-07-18 13.8 19.0 11.5 8.2 74.3- 4.7 4.3---- 0.0------------
1961-07-17 15.2 19.6 11.0 5.2 70.0- 4.7 4.0---- 0.8------------
1961-07-16 14.6 20.7 12.3 12.2 82.0- 7.0 5.0---- 0.0------------
1961-07-15 18.3 23.4 15.5 12.2 65.8- 7.0 6.3---- 21.8------------
1961-07-14 15.7 18.7 12.6 9.7 53.5- 5.0 8.0---- 0.0------------
1961-07-13 19.1 26.8 14.4 10.1 73.8- 3.3 7.3---- 20.9------------
1961-07-12 21.2 25.7 14.6 10.9 64.5- 2.7 4.3---- 0.0------------
1961-07-11 16.2 21.5 7.4 3.1 71.0- 4.0 3.0---- 3.2------------
1961-07-10 13.3 16.8 11.1 8.3 78.5- 5.7 4.7---- 8.9------------
1961-07-09 13.6 19.7 9.5 5.9 81.8- 6.0 4.3---- 1.6------------
1961-07-08 13.2 19.9 6.5 1.8 74.0- 3.7 1.7---- 0.0------------
1961-07-07 11.4 16.2 8.7 7.0 78.0- 4.3 2.0---- 1.1------------
1961-07-06 12.2 14.9 7.2 3.5 66.0- 7.0 6.0---- 0.0------------
1961-07-05 12.7 18.7 10.8 11.1 70.0- 6.3 2.7---- 0.0------------
1961-07-04 21.2 28.0 16.5 10.8 76.5- 3.7 4.0---- 13.8------------
1961-07-03 22.6 29.2 14.6 10.9 53.0- 0.3 2.7---- 0.0------------
1961-07-02 20.3 27.8 12.0 7.6 65.0- 0.0 0.0---- 0.0------------
1961-07-01 20.5 25.2 11.7 8.9 64.0- 1.3 1.3---- 0.0------------
1961-06-30 17.7 21.9 9.9 6.5 66.8- 0.3 1.0---- 0.0------------
1961-06-29 15.2 19.6 7.7 3.9 69.5- 4.7 0.7---- 0.0------------
1961-06-28 12.4 21.3 10.6 11.5 81.3- 5.3 3.7---- 4.4------------
1961-06-27 22.5 29.4 16.1 16.1 70.5- 3.0 5.0---- 82.4------------
1961-06-26 20.2 28.7 17.0 15.4 82.3- 6.7 5.7---- 29.4------------
1961-06-25 22.7 28.3 13.6 7.9 57.5- 0.7 4.0---- 0.0------------
1961-06-24 18.5 23.7 10.6 6.6 65.0- 5.0 2.0---- 0.0------------
1961-06-23 17.2 22.4 15.1 12.8 78.0- 4.3 3.7---- 0.0------------
1961-06-22 20.5 25.9 9.3 4.2 62.8- 5.7 4.3---- 6.9------------
1961-06-21 16.7 22.8 7.2 2.9 62.3- 1.0 1.7---- 0.0------------
1961-06-20 14.6 19.3 12.0 8.9 66.5- 2.3 1.3---- 0.0------------
1961-06-19 19.9 26.6 15.6 10.5 70.3- 3.7 2.0---- 0.0------------
1961-06-18 19.6 24.6 9.9 5.4 59.8- 1.0 4.0---- 0.0------------
1961-06-17 14.8 20.9 6.2 1.5 62.8- 1.3 1.7---- 0.0------------
1961-06-16 12.5 18.4 6.1 2.2 77.3- 2.7 2.0---- 0.0------------
276.0 ms

 

Źródłem pochodzenia danych jest Instytut Meteorologii i Gospodarki Wodnej – Państwowy Instytut Badawczy. Dane Instytutu Meteorologii i Gospodarki Wodnej – Państwowego Instytutu Badawczego zostały przetworzone.

Dane źródłowe można odnaleźć na stronie https://dane.imgw.pl